sensor_id;sensor_type;location;lat;lon;timestamp;P1;durP1;ratioP1;P2;durP2;ratioP2
10465;SDS011;5280;42.600;23.556;2023-06-22T00:15:39;8.83;;;7.97;;
10465;SDS011;5280;42.600;23.556;2023-06-22T00:42:24;7.90;;;7.17;;
10465;SDS011;5280;42.600;23.556;2023-06-22T00:51:51;8.17;;;7.37;;
10465;SDS011;5280;42.600;23.556;2023-06-22T00:54:56;7.50;;;6.90;;
10465;SDS011;5280;42.600;23.556;2023-06-22T01:46:48;7.00;;;6.50;;
10465;SDS011;5280;42.600;23.556;2023-06-22T01:50:18;7.77;;;6.63;;
10465;SDS011;5280;42.600;23.556;2023-06-22T01:53:11;7.37;;;6.63;;
10465;SDS011;5280;42.600;23.556;2023-06-22T01:56:23;6.90;;;6.30;;
10465;SDS011;5280;42.600;23.556;2023-06-22T02:20:58;7.50;;;6.80;;
10465;SDS011;5280;42.600;23.556;2023-06-22T02:37:22;8.13;;;6.47;;
10465;SDS011;5280;42.600;23.556;2023-06-22T02:40:07;7.17;;;6.57;;
10465;SDS011;5280;42.600;23.556;2023-06-22T02:43:10;7.83;;;6.90;;
10465;SDS011;5280;42.600;23.556;2023-06-22T02:45:57;7.40;;;6.67;;
10465;SDS011;5280;42.600;23.556;2023-06-22T02:48:46;7.87;;;6.73;;
10465;SDS011;5280;42.600;23.556;2023-06-22T02:57:50;7.47;;;6.93;;
10465;SDS011;5280;42.600;23.556;2023-06-22T03:04:21;7.47;;;6.90;;
10465;SDS011;5280;42.600;23.556;2023-06-22T03:07:10;7.63;;;7.03;;
10465;SDS011;5280;42.600;23.556;2023-06-22T03:09:39;9.10;;;7.13;;
10465;SDS011;5280;42.600;23.556;2023-06-22T03:12:34;7.40;;;6.80;;
10465;SDS011;5280;42.600;23.556;2023-06-22T03:16:26;8.13;;;7.37;;
10465;SDS011;5280;42.600;23.556;2023-06-22T03:19:10;7.83;;;7.23;;
10465;SDS011;5280;42.600;23.556;2023-06-22T03:22:03;9.80;;;7.30;;
10465;SDS011;5280;42.600;23.556;2023-06-22T03:24:48;8.10;;;7.40;;
10465;SDS011;5280;42.600;23.556;2023-06-22T03:27:22;7.83;;;7.13;;
10465;SDS011;5280;42.600;23.556;2023-06-22T03:29:56;8.00;;;7.30;;
10465;SDS011;5280;42.600;23.556;2023-06-22T03:32:29;8.10;;;7.30;;
10465;SDS011;5280;42.600;23.556;2023-06-22T03:35:07;6.97;;;6.47;;
10465;SDS011;5280;42.600;23.556;2023-06-22T03:41:12;8.33;;;7.40;;
10465;SDS011;5280;42.600;23.556;2023-06-22T03:43:46;8.13;;;7.50;;
10465;SDS011;5280;42.600;23.556;2023-06-22T03:46:15;8.90;;;7.80;;
10465;SDS011;5280;42.600;23.556;2023-06-22T03:48:45;8.20;;;7.47;;
10465;SDS011;5280;42.600;23.556;2023-06-22T03:51:36;8.20;;;7.60;;
10465;SDS011;5280;42.600;23.556;2023-06-22T03:54:22;8.33;;;7.73;;
10465;SDS011;5280;42.600;23.556;2023-06-22T03:57:17;8.40;;;7.60;;
10465;SDS011;5280;42.600;23.556;2023-06-22T04:03:18;10.57;;;9.67;;
10465;SDS011;5280;42.600;23.556;2023-06-22T04:05:50;10.37;;;9.47;;
10465;SDS011;5280;42.600;23.556;2023-06-22T04:08:38;9.80;;;8.90;;
10465;SDS011;5280;42.600;23.556;2023-06-22T04:11:06;9.33;;;8.57;;
10465;SDS011;5280;42.600;23.556;2023-06-22T04:13:48;10.00;;;8.97;;
10465;SDS011;5280;42.600;23.556;2023-06-22T04:20:33;10.30;;;9.40;;
10465;SDS011;5280;42.600;23.556;2023-06-22T04:33:24;9.63;;;8.83;;
10465;SDS011;5280;42.600;23.556;2023-06-22T04:36:00;10.53;;;9.53;;
10465;SDS011;5280;42.600;23.556;2023-06-22T04:39:01;9.70;;;8.80;;
10465;SDS011;5280;42.600;23.556;2023-06-22T04:45:48;19.37;;;9.43;;
10465;SDS011;5280;42.600;23.556;2023-06-22T05:09:27;9.83;;;8.83;;
10465;SDS011;5280;42.600;23.556;2023-06-22T05:12:17;10.03;;;9.00;;
10465;SDS011;5280;42.600;23.556;2023-06-22T05:14:44;10.57;;;9.10;;
10465;SDS011;5280;42.600;23.556;2023-06-22T05:23:45;9.67;;;8.77;;
10465;SDS011;5280;42.600;23.556;2023-06-22T05:50:04;10.70;;;9.70;;
10465;SDS011;5280;42.600;23.556;2023-06-22T05:52:58;10.43;;;9.30;;
10465;SDS011;5280;42.600;23.556;2023-06-22T05:56:15;9.47;;;8.53;;
10465;SDS011;5280;42.600;23.556;2023-06-22T06:07:02;10.70;;;9.77;;
10465;SDS011;5280;42.600;23.556;2023-06-22T06:09:42;10.32;;;9.25;;
10465;SDS011;5280;42.600;23.556;2023-06-22T06:12:11;13.35;;;9.65;;
10465;SDS011;5280;42.600;23.556;2023-06-22T06:14:40;10.50;;;9.40;;
10465;SDS011;5280;42.600;23.556;2023-06-22T06:17:13;10.68;;;9.77;;
10465;SDS011;5280;42.600;23.556;2023-06-22T06:19:46;10.60;;;9.30;;
10465;SDS011;5280;42.600;23.556;2023-06-22T06:22:37;10.27;;;9.32;;
10465;SDS011;5280;42.600;23.556;2023-06-22T06:25:13;10.48;;;9.57;;
10465;SDS011;5280;42.600;23.556;2023-06-22T06:27:44;10.48;;;9.20;;
10465;SDS011;5280;42.600;23.556;2023-06-22T06:33:13;9.68;;;8.88;;
10465;SDS011;5280;42.600;23.556;2023-06-22T06:35:41;9.90;;;9.02;;
10465;SDS011;5280;42.600;23.556;2023-06-22T06:38:13;9.70;;;8.95;;
10465;SDS011;5280;42.600;23.556;2023-06-22T06:40:42;10.40;;;9.23;;
10465;SDS011;5280;42.600;23.556;2023-06-22T06:43:12;10.32;;;9.43;;
10465;SDS011;5280;42.600;23.556;2023-06-22T06:45:42;9.93;;;8.88;;
10465;SDS011;5280;42.600;23.556;2023-06-22T06:48:10;8.95;;;8.13;;
10465;SDS011;5280;42.600;23.556;2023-06-22T06:50:46;9.82;;;8.98;;
10465;SDS011;5280;42.600;23.556;2023-06-22T06:53:56;9.35;;;8.60;;
10465;SDS011;5280;42.600;23.556;2023-06-22T06:56:27;9.25;;;8.45;;
10465;SDS011;5280;42.600;23.556;2023-06-22T06:59:04;11.02;;;9.93;;
10465;SDS011;5280;42.600;23.556;2023-06-22T07:01:35;9.98;;;9.27;;
10465;SDS011;5280;42.600;23.556;2023-06-22T07:04:04;10.13;;;9.23;;
10465;SDS011;5280;42.600;23.556;2023-06-22T07:06:40;10.25;;;9.30;;
10465;SDS011;5280;42.600;23.556;2023-06-22T07:09:09;10.25;;;9.38;;
10465;SDS011;5280;42.600;23.556;2023-06-22T07:11:36;9.93;;;9.15;;
10465;SDS011;5280;42.600;23.556;2023-06-22T07:14:07;9.15;;;8.45;;
10465;SDS011;5280;42.600;23.556;2023-06-22T07:16:34;9.85;;;8.90;;
10465;SDS011;5280;42.600;23.556;2023-06-22T07:19:05;9.27;;;8.38;;
10465;SDS011;5280;42.600;23.556;2023-06-22T07:21:32;9.52;;;8.75;;
10465;SDS011;5280;42.600;23.556;2023-06-22T07:24:47;9.05;;;8.35;;
10465;SDS011;5280;42.600;23.556;2023-06-22T07:27:15;10.75;;;7.95;;
10465;SDS011;5280;42.600;23.556;2023-06-22T07:29:45;8.68;;;7.85;;
10465;SDS011;5280;42.600;23.556;2023-06-22T07:32:12;8.98;;;8.20;;
10465;SDS011;5280;42.600;23.556;2023-06-22T07:34:40;8.48;;;7.63;;
10465;SDS011;5280;42.600;23.556;2023-06-22T07:37:08;8.82;;;8.02;;
10465;SDS011;5280;42.600;23.556;2023-06-22T07:39:39;8.50;;;7.82;;
10465;SDS011;5280;42.600;23.556;2023-06-22T07:42:09;9.13;;;7.40;;
10465;SDS011;5280;42.600;23.556;2023-06-22T07:44:48;7.72;;;7.13;;
10465;SDS011;5280;42.600;23.556;2023-06-22T07:47:16;8.02;;;7.43;;
10465;SDS011;5280;42.600;23.556;2023-06-22T07:49:44;8.85;;;8.13;;
10465;SDS011;5280;42.600;23.556;2023-06-22T07:52:11;8.30;;;7.53;;
10465;SDS011;5280;42.600;23.556;2023-06-22T07:54:42;7.95;;;7.35;;
10465;SDS011;5280;42.600;23.556;2023-06-22T07:57:15;7.43;;;6.80;;
10465;SDS011;5280;42.600;23.556;2023-06-22T07:59:44;9.10;;;7.18;;
10465;SDS011;5280;42.600;23.556;2023-06-22T08:02:12;7.45;;;6.75;;
10465;SDS011;5280;42.600;23.556;2023-06-22T08:04:42;6.90;;;6.40;;
10465;SDS011;5280;42.600;23.556;2023-06-22T08:07:10;7.10;;;6.60;;
10465;SDS011;5280;42.600;23.556;2023-06-22T08:09:38;7.10;;;6.60;;
10465;SDS011;5280;42.600;23.556;2023-06-22T08:12:12;7.57;;;6.97;;
10465;SDS011;5280;42.600;23.556;2023-06-22T08:14:41;7.18;;;6.57;;
10465;SDS011;5280;42.600;23.556;2023-06-22T08:17:08;7.18;;;6.60;;
10465;SDS011;5280;42.600;23.556;2023-06-22T08:19:36;7.10;;;6.60;;
10465;SDS011;5280;42.600;23.556;2023-06-22T08:22:04;7.47;;;6.85;;
10465;SDS011;5280;42.600;23.556;2023-06-22T08:24:31;6.70;;;6.05;;
10465;SDS011;5280;42.600;23.556;2023-06-22T08:27:00;7.40;;;6.80;;
10465;SDS011;5280;42.600;23.556;2023-06-22T08:29:28;6.43;;;6.03;;
10465;SDS011;5280;42.600;23.556;2023-06-22T08:31:56;6.68;;;6.28;;
10465;SDS011;5280;42.600;23.556;2023-06-22T08:34:23;6.45;;;5.95;;
10465;SDS011;5280;42.600;23.556;2023-06-22T08:36:52;6.53;;;5.97;;
10465;SDS011;5280;42.600;23.556;2023-06-22T08:39:19;7.22;;;6.63;;
10465;SDS011;5280;42.600;23.556;2023-06-22T08:41:46;6.85;;;6.18;;
10465;SDS011;5280;42.600;23.556;2023-06-22T08:44:19;9.73;;;6.63;;
10465;SDS011;5280;42.600;23.556;2023-06-22T08:46:52;6.43;;;5.95;;
10465;SDS011;5280;42.600;23.556;2023-06-22T08:49:42;8.13;;;6.43;;
10465;SDS011;5280;42.600;23.556;2023-06-22T08:52:10;6.53;;;6.03;;
10465;SDS011;5280;42.600;23.556;2023-06-22T08:54:39;7.32;;;6.13;;
10465;SDS011;5280;42.600;23.556;2023-06-22T08:57:06;6.30;;;5.90;;
10465;SDS011;5280;42.600;23.556;2023-06-22T08:59:33;7.82;;;7.18;;
10465;SDS011;5280;42.600;23.556;2023-06-22T09:02:00;8.27;;;6.82;;
10465;SDS011;5280;42.600;23.556;2023-06-22T09:04:27;6.65;;;6.15;;
10465;SDS011;5280;42.600;23.556;2023-06-22T09:06:55;7.85;;;7.20;;
10465;SDS011;5280;42.600;23.556;2023-06-22T09:09:23;7.38;;;6.78;;
10465;SDS011;5280;42.600;23.556;2023-06-22T09:11:50;7.57;;;6.75;;
10465;SDS011;5280;42.600;23.556;2023-06-22T09:17:40;7.30;;;6.57;;
10465;SDS011;5280;42.600;23.556;2023-06-22T09:20:08;7.88;;;7.15;;
10465;SDS011;5280;42.600;23.556;2023-06-22T09:25:58;7.03;;;6.47;;
10465;SDS011;5280;42.600;23.556;2023-06-22T09:28:26;8.50;;;7.80;;
10465;SDS011;5280;42.600;23.556;2023-06-22T09:31:04;8.63;;;7.97;;
10465;SDS011;5280;42.600;23.556;2023-06-22T09:36:11;7.78;;;7.20;;
10465;SDS011;5280;42.600;23.556;2023-06-22T09:38:38;8.55;;;7.85;;
10465;SDS011;5280;42.600;23.556;2023-06-22T09:41:06;8.68;;;7.90;;
10465;SDS011;5280;42.600;23.556;2023-06-22T09:43:33;9.75;;;7.40;;
10465;SDS011;5280;42.600;23.556;2023-06-22T09:46:01;7.32;;;6.72;;
10465;SDS011;5280;42.600;23.556;2023-06-22T09:48:28;7.88;;;7.00;;
10465;SDS011;5280;42.600;23.556;2023-06-22T09:50:55;8.00;;;7.20;;
10465;SDS011;5280;42.600;23.556;2023-06-22T09:53:22;7.53;;;6.93;;
10465;SDS011;5280;42.600;23.556;2023-06-22T09:55:49;7.47;;;6.88;;
10465;SDS011;5280;42.600;23.556;2023-06-22T09:58:19;7.15;;;6.50;;
10465;SDS011;5280;42.600;23.556;2023-06-22T10:00:46;7.82;;;7.22;;
10465;SDS011;5280;42.600;23.556;2023-06-22T10:03:13;7.07;;;6.60;;
10465;SDS011;5280;42.600;23.556;2023-06-22T10:05:39;7.57;;;7.07;;
10465;SDS011;5280;42.600;23.556;2023-06-22T10:08:06;7.50;;;6.95;;
10465;SDS011;5280;42.600;23.556;2023-06-22T10:10:35;7.72;;;7.22;;
10465;SDS011;5280;42.600;23.556;2023-06-22T10:13:03;7.75;;;6.93;;
10465;SDS011;5280;42.600;23.556;2023-06-22T10:15:36;8.10;;;7.40;;
10465;SDS011;5280;42.600;23.556;2023-06-22T10:18:04;8.02;;;7.35;;
10465;SDS011;5280;42.600;23.556;2023-06-22T10:20:32;8.98;;;7.18;;
10465;SDS011;5280;42.600;23.556;2023-06-22T10:23:03;12.30;;;7.95;;
10465;SDS011;5280;42.600;23.556;2023-06-22T10:25:30;8.70;;;7.70;;
10465;SDS011;5280;42.600;23.556;2023-06-22T10:27:57;7.30;;;6.75;;
10465;SDS011;5280;42.600;23.556;2023-06-22T10:30:24;7.18;;;6.70;;
10465;SDS011;5280;42.600;23.556;2023-06-22T10:32:55;8.00;;;7.40;;
10465;SDS011;5280;42.600;23.556;2023-06-22T10:35:22;8.13;;;7.60;;
10465;SDS011;5280;42.600;23.556;2023-06-22T11:46:16;8.15;;;7.40;;
10465;SDS011;5280;42.600;23.556;2023-06-22T11:48:43;7.22;;;6.78;;
10465;SDS011;5280;42.600;23.556;2023-06-22T11:51:11;7.72;;;6.97;;
10465;SDS011;5280;42.600;23.556;2023-06-22T11:53:38;7.35;;;6.85;;
10465;SDS011;5280;42.600;23.556;2023-06-22T11:56:05;7.28;;;6.63;;
10465;SDS011;5280;42.600;23.556;2023-06-22T11:58:32;7.13;;;6.63;;
10465;SDS011;5280;42.600;23.556;2023-06-22T12:01:00;6.90;;;6.47;;
10465;SDS011;5280;42.600;23.556;2023-06-22T12:03:29;8.15;;;7.45;;
10465;SDS011;5280;42.600;23.556;2023-06-22T12:05:56;8.00;;;7.28;;
10465;SDS011;5280;42.600;23.556;2023-06-22T12:08:23;8.15;;;7.38;;
10465;SDS011;5280;42.600;23.556;2023-06-22T12:10:50;7.82;;;7.07;;
10465;SDS011;5280;42.600;23.556;2023-06-22T12:13:19;8.70;;;7.15;;
10465;SDS011;5280;42.600;23.556;2023-06-22T12:15:46;8.27;;;7.65;;
10465;SDS011;5280;42.600;23.556;2023-06-22T12:18:13;7.07;;;6.57;;
10465;SDS011;5280;42.600;23.556;2023-06-22T12:20:47;8.48;;;7.22;;
10465;SDS011;5280;42.600;23.556;2023-06-22T12:23:19;8.15;;;7.53;;
10465;SDS011;5280;42.600;23.556;2023-06-22T12:25:53;7.53;;;7.03;;
10465;SDS011;5280;42.600;23.556;2023-06-22T12:28:20;8.65;;;7.72;;
10465;SDS011;5280;42.600;23.556;2023-06-22T12:30:48;8.73;;;8.02;;
10465;SDS011;5280;42.600;23.556;2023-06-22T12:33:25;8.38;;;7.68;;
10465;SDS011;5280;42.600;23.556;2023-06-22T12:38:35;8.02;;;7.32;;
10465;SDS011;5280;42.600;23.556;2023-06-22T12:41:02;8.85;;;7.95;;
10465;SDS011;5280;42.600;23.556;2023-06-22T12:43:31;8.57;;;7.88;;
10465;SDS011;5280;42.600;23.556;2023-06-22T12:45:58;8.45;;;7.75;;
10465;SDS011;5280;42.600;23.556;2023-06-22T12:48:25;7.82;;;7.22;;
10465;SDS011;5280;42.600;23.556;2023-06-22T12:50:53;8.82;;;8.13;;
10465;SDS011;5280;42.600;23.556;2023-06-22T12:53:29;8.25;;;7.65;;
10465;SDS011;5280;42.600;23.556;2023-06-22T12:55:56;8.90;;;8.10;;
10465;SDS011;5280;42.600;23.556;2023-06-22T12:58:23;8.25;;;7.55;;
10465;SDS011;5280;42.600;23.556;2023-06-22T13:00:50;8.60;;;7.85;;
10465;SDS011;5280;42.600;23.556;2023-06-22T13:03:17;7.88;;;7.35;;
10465;SDS011;5280;42.600;23.556;2023-06-22T13:05:44;8.57;;;7.85;;
10465;SDS011;5280;42.600;23.556;2023-06-22T13:08:12;8.85;;;8.10;;
10465;SDS011;5280;42.600;23.556;2023-06-22T13:10:42;9.05;;;8.15;;
10465;SDS011;5280;42.600;23.556;2023-06-22T13:13:09;8.57;;;7.97;;
10465;SDS011;5280;42.600;23.556;2023-06-22T13:15:38;9.50;;;8.63;;
10465;SDS011;5280;42.600;23.556;2023-06-22T13:18:05;8.40;;;7.70;;
10465;SDS011;5280;42.600;23.556;2023-06-22T13:20:32;8.80;;;8.10;;
10465;SDS011;5280;42.600;23.556;2023-06-22T13:22:59;8.25;;;7.55;;
10465;SDS011;5280;42.600;23.556;2023-06-22T13:25:26;7.35;;;6.85;;
10465;SDS011;5280;42.600;23.556;2023-06-22T13:27:56;7.50;;;6.80;;
10465;SDS011;5280;42.600;23.556;2023-06-22T13:30:23;7.53;;;6.93;;
10465;SDS011;5280;42.600;23.556;2023-06-22T13:32:51;6.85;;;6.18;;
10465;SDS011;5280;42.600;23.556;2023-06-22T13:35:18;7.32;;;6.75;;
10465;SDS011;5280;42.600;23.556;2023-06-22T13:37:45;7.25;;;6.47;;
10465;SDS011;5280;42.600;23.556;2023-06-22T13:40:12;11.80;;;7.32;;
10465;SDS011;5280;42.600;23.556;2023-06-22T13:42:39;7.35;;;6.72;;
10465;SDS011;5280;42.600;23.556;2023-06-22T13:45:09;8.10;;;7.40;;
10465;SDS011;5280;42.600;23.556;2023-06-22T13:47:38;7.20;;;6.70;;
10465;SDS011;5280;42.600;23.556;2023-06-22T13:50:05;6.97;;;6.38;;
10465;SDS011;5280;42.600;23.556;2023-06-22T13:52:33;7.03;;;6.32;;
10465;SDS011;5280;42.600;23.556;2023-06-22T13:55:01;8.27;;;7.47;;
10465;SDS011;5280;42.600;23.556;2023-06-22T13:57:29;8.02;;;7.38;;
10465;SDS011;5280;42.600;23.556;2023-06-22T13:59:56;7.53;;;6.85;;
10465;SDS011;5280;42.600;23.556;2023-06-22T14:02:25;8.13;;;7.32;;
10465;SDS011;5280;42.600;23.556;2023-06-22T14:04:53;8.48;;;7.57;;
10465;SDS011;5280;42.600;23.556;2023-06-22T14:07:19;8.45;;;7.85;;
10465;SDS011;5280;42.600;23.556;2023-06-22T14:09:49;8.38;;;7.68;;
10465;SDS011;5280;42.600;23.556;2023-06-22T14:12:16;8.15;;;7.32;;
10465;SDS011;5280;42.600;23.556;2023-06-22T14:14:44;8.85;;;8.00;;
10465;SDS011;5280;42.600;23.556;2023-06-22T14:17:11;8.68;;;7.78;;
10465;SDS011;5280;42.600;23.556;2023-06-22T14:19:43;8.18;;;7.47;;
10465;SDS011;5280;42.600;23.556;2023-06-22T14:22:10;8.82;;;8.13;;
10465;SDS011;5280;42.600;23.556;2023-06-22T14:24:37;9.82;;;7.53;;
10465;SDS011;5280;42.600;23.556;2023-06-22T14:27:04;8.20;;;7.50;;
10465;SDS011;5280;42.600;23.556;2023-06-22T14:29:33;8.43;;;7.45;;
10465;SDS011;5280;42.600;23.556;2023-06-22T14:32:01;8.00;;;7.40;;
10465;SDS011;5280;42.600;23.556;2023-06-22T14:34:29;8.15;;;7.45;;
10465;SDS011;5280;42.600;23.556;2023-06-22T14:37:00;7.90;;;7.20;;
10465;SDS011;5280;42.600;23.556;2023-06-22T14:39:27;7.97;;;7.18;;
10465;SDS011;5280;42.600;23.556;2023-06-22T14:41:54;7.88;;;7.18;;
10465;SDS011;5280;42.600;23.556;2023-06-22T14:44:25;9.82;;;7.28;;
10465;SDS011;5280;42.600;23.556;2023-06-22T14:46:54;8.32;;;7.50;;
10465;SDS011;5280;42.600;23.556;2023-06-22T14:49:22;9.70;;;7.30;;
10465;SDS011;5280;42.600;23.556;2023-06-22T14:51:50;8.70;;;7.65;;
10465;SDS011;5280;42.600;23.556;2023-06-22T14:54:22;8.98;;;8.07;;
10465;SDS011;5280;42.600;23.556;2023-06-22T14:56:50;8.88;;;7.53;;
10465;SDS011;5280;42.600;23.556;2023-06-22T14:59:17;7.93;;;7.38;;
10465;SDS011;5280;42.600;23.556;2023-06-22T15:01:44;9.13;;;7.35;;
10465;SDS011;5280;42.600;23.556;2023-06-22T15:04:10;9.90;;;7.50;;
10465;SDS011;5280;42.600;23.556;2023-06-22T15:06:37;10.38;;;7.80;;
10465;SDS011;5280;42.600;23.556;2023-06-22T15:09:05;8.13;;;7.43;;
10465;SDS011;5280;42.600;23.556;2023-06-22T15:11:34;8.02;;;7.32;;
10465;SDS011;5280;42.600;23.556;2023-06-22T15:14:01;7.82;;;7.13;;
10465;SDS011;5280;42.600;23.556;2023-06-22T15:16:28;8.13;;;7.32;;
10465;SDS011;5280;42.600;23.556;2023-06-22T15:18:55;7.90;;;7.10;;
10465;SDS011;5280;42.600;23.556;2023-06-22T15:21:23;7.88;;;7.15;;
10465;SDS011;5280;42.600;23.556;2023-06-22T15:23:51;7.78;;;7.07;;
10465;SDS011;5280;42.600;23.556;2023-06-22T15:26:18;8.15;;;7.35;;
10465;SDS011;5280;42.600;23.556;2023-06-22T15:28:48;8.75;;;8.05;;
10465;SDS011;5280;42.600;23.556;2023-06-22T15:31:16;10.50;;;8.50;;
10465;SDS011;5280;42.600;23.556;2023-06-22T15:33:42;10.20;;;9.23;;
10465;SDS011;5280;42.600;23.556;2023-06-22T15:36:09;8.30;;;7.57;;
10465;SDS011;5280;42.600;23.556;2023-06-22T15:38:37;8.35;;;7.55;;
10465;SDS011;5280;42.600;23.556;2023-06-22T15:41:03;10.05;;;8.77;;
10465;SDS011;5280;42.600;23.556;2023-06-22T15:43:30;8.60;;;8.00;;
10465;SDS011;5280;42.600;23.556;2023-06-22T15:45:59;9.60;;;8.32;;
10465;SDS011;5280;42.600;23.556;2023-06-22T15:48:26;9.90;;;8.45;;
10465;SDS011;5280;42.600;23.556;2023-06-22T15:50:53;9.68;;;8.13;;
10465;SDS011;5280;42.600;23.556;2023-06-22T15:53:21;9.23;;;8.38;;
10465;SDS011;5280;42.600;23.556;2023-06-22T15:55:48;11.00;;;10.05;;
10465;SDS011;5280;42.600;23.556;2023-06-22T15:58:15;10.75;;;9.85;;
10465;SDS011;5280;42.600;23.556;2023-06-22T16:00:42;10.38;;;9.43;;
10465;SDS011;5280;42.600;23.556;2023-06-22T16:03:11;10.20;;;9.30;;
10465;SDS011;5280;42.600;23.556;2023-06-22T16:05:39;9.30;;;8.60;;
10465;SDS011;5280;42.600;23.556;2023-06-22T16:08:09;9.88;;;8.93;;
10465;SDS011;5280;42.600;23.556;2023-06-22T16:10:38;10.80;;;9.65;;
10465;SDS011;5280;42.600;23.556;2023-06-22T16:13:05;9.85;;;9.15;;
10465;SDS011;5280;42.600;23.556;2023-06-22T16:15:35;10.70;;;9.60;;
10465;SDS011;5280;42.600;23.556;2023-06-22T16:18:04;10.32;;;8.60;;
10465;SDS011;5280;42.600;23.556;2023-06-22T16:20:32;10.90;;;9.45;;
10465;SDS011;5280;42.600;23.556;2023-06-22T16:22:59;8.60;;;7.93;;
10465;SDS011;5280;42.600;23.556;2023-06-22T16:25:27;9.10;;;8.27;;
10465;SDS011;5280;42.600;23.556;2023-06-22T16:27:54;10.27;;;9.23;;
10465;SDS011;5280;42.600;23.556;2023-06-22T16:30:21;10.20;;;9.20;;
10465;SDS011;5280;42.600;23.556;2023-06-22T16:32:51;12.30;;;9.77;;
10465;SDS011;5280;42.600;23.556;2023-06-22T16:35:19;10.32;;;9.50;;
10465;SDS011;5280;42.600;23.556;2023-06-22T16:37:48;10.30;;;9.25;;
10465;SDS011;5280;42.600;23.556;2023-06-22T16:40:15;10.50;;;9.50;;
10465;SDS011;5280;42.600;23.556;2023-06-22T16:42:45;10.35;;;9.32;;
10465;SDS011;5280;42.600;23.556;2023-06-22T16:45:13;10.10;;;9.30;;
10465;SDS011;5280;42.600;23.556;2023-06-22T16:47:40;10.10;;;9.30;;
10465;SDS011;5280;42.600;23.556;2023-06-22T16:50:07;10.00;;;8.95;;
10465;SDS011;5280;42.600;23.556;2023-06-22T16:52:35;9.85;;;8.88;;
10465;SDS011;5280;42.600;23.556;2023-06-22T16:55:04;9.13;;;8.43;;
10465;SDS011;5280;42.600;23.556;2023-06-22T16:57:32;8.93;;;8.23;;
10465;SDS011;5280;42.600;23.556;2023-06-22T16:59:59;10.15;;;8.48;;
10465;SDS011;5280;42.600;23.556;2023-06-22T17:02:26;8.95;;;8.25;;
10465;SDS011;5280;42.600;23.556;2023-06-22T17:04:58;8.25;;;7.60;;
10465;SDS011;5280;42.600;23.556;2023-06-22T17:07:25;8.73;;;7.93;;
10465;SDS011;5280;42.600;23.556;2023-06-22T17:09:54;9.32;;;8.38;;
10465;SDS011;5280;42.600;23.556;2023-06-22T17:12:24;8.65;;;7.65;;
10465;SDS011;5280;42.600;23.556;2023-06-22T17:14:52;8.98;;;8.07;;
10465;SDS011;5280;42.600;23.556;2023-06-22T17:17:18;8.20;;;7.60;;
10465;SDS011;5280;42.600;23.556;2023-06-22T17:19:46;9.15;;;8.45;;
10465;SDS011;5280;42.600;23.556;2023-06-22T17:22:13;8.70;;;7.95;;
10465;SDS011;5280;42.600;23.556;2023-06-22T17:24:40;8.65;;;7.85;;
10465;SDS011;5280;42.600;23.556;2023-06-22T17:27:09;8.88;;;8.18;;
10465;SDS011;5280;42.600;23.556;2023-06-22T17:29:37;11.05;;;8.60;;
10465;SDS011;5280;42.600;23.556;2023-06-22T17:32:04;9.70;;;8.38;;
10465;SDS011;5280;42.600;23.556;2023-06-22T17:34:32;8.25;;;7.65;;
10465;SDS011;5280;42.600;23.556;2023-06-22T17:36:59;8.15;;;7.53;;
10465;SDS011;5280;42.600;23.556;2023-06-22T17:39:26;8.90;;;8.15;;
10465;SDS011;5280;42.600;23.556;2023-06-22T17:41:54;8.60;;;7.55;;
10465;SDS011;5280;42.600;23.556;2023-06-22T17:44:22;9.45;;;8.50;;
10465;SDS011;5280;42.600;23.556;2023-06-22T17:46:54;8.73;;;8.02;;
10465;SDS011;5280;42.600;23.556;2023-06-22T17:49:23;8.73;;;8.02;;
10465;SDS011;5280;42.600;23.556;2023-06-22T17:51:53;9.20;;;8.30;;
10465;SDS011;5280;42.600;23.556;2023-06-22T17:54:21;11.38;;;8.50;;
10465;SDS011;5280;42.600;23.556;2023-06-22T17:56:48;10.38;;;8.73;;
10465;SDS011;5280;42.600;23.556;2023-06-22T17:59:17;13.60;;;8.48;;
10465;SDS011;5280;42.600;23.556;2023-06-22T18:01:44;12.30;;;9.10;;
10465;SDS011;5280;42.600;23.556;2023-06-22T18:04:14;8.65;;;7.95;;
10465;SDS011;5280;42.600;23.556;2023-06-22T18:06:42;9.50;;;8.52;;
10465;SDS011;5280;42.600;23.556;2023-06-22T18:09:11;10.40;;;8.33;;
10465;SDS011;5280;42.600;23.556;2023-06-22T18:11:42;10.47;;;8.70;;
10465;SDS011;5280;42.600;23.556;2023-06-22T18:14:11;9.53;;;8.63;;
10465;SDS011;5280;42.600;23.556;2023-06-22T18:16:41;9.07;;;8.13;;
10465;SDS011;5280;42.600;23.556;2023-06-22T18:19:10;10.13;;;9.13;;
10465;SDS011;5280;42.600;23.556;2023-06-22T18:21:40;10.00;;;9.07;;
10465;SDS011;5280;42.600;23.556;2023-06-22T18:24:07;9.47;;;8.77;;
10465;SDS011;5280;42.600;23.556;2023-06-22T18:26:35;9.53;;;8.63;;
10465;SDS011;5280;42.600;23.556;2023-06-22T18:29:03;8.80;;;8.10;;
10465;SDS011;5280;42.600;23.556;2023-06-22T18:31:30;9.85;;;9.05;;
10465;SDS011;5280;42.600;23.556;2023-06-22T18:33:58;9.70;;;8.80;;
